Date,TemperatureHighF,TemperatureAvgF,TemperatureLowF,DewpointHighF,DewpointAvgF,DewpointLowF,HumidityHigh,HumidityAvg,HumidityLow,PressureMaxIn,PressureMinIn,WindSpeedMaxMPH,WindSpeedAvgMPH,GustSpeedMaxMPH,PrecipitationSumIn
2013-1-1,37,28,0,20,14,10,72,55,37,29.93,29.72,11,4,22,0.00
2013-1-2,37,25,14,11,8,5,69,51,27,29.94,29.80,8,3,14,0.00
2013-1-3,39,25,14,14,10,5,70,53,34,30.00,29.86,7,1,12,0.00
2013-1-4,37,23,0,10,4,-1,67,45,27,29.98,29.84,7,2,16,0.00
2013-1-5,44,29,14,8,5,1,60,38,21,30.05,29.88,6,1,12,0.00
2013-1-6,46,29,14,10,7,2,64,41,22,30.07,29.78,6,1,11,0.00
2013-1-7,52,37,28,18,12,9,48,37,24,29.84,29.65,6,1,13,0.00
2013-1-8,52,36,26,16,13,9,59,40,20,29.92,29.63,10,4,22,0.00
2013-1-9,54,37,24,15,12,9,55,37,21,30.07,29.82,8,2,15,0.00
2013-1-10,49,36,22,22,13,9,60,41,24,29.83,29.48,8,1,16,0.00
2013-1-11,44,34,21,23,6,-9,57,31,18,29.66,29.36,14,6,30,0.00
2013-1-12,35,22,13,1,-5,-12,44,30,16,29.70,29.54,9,2,24,0.00
2013-1-13,33,21,8,4,-3,-7,51,35,25,29.80,29.67,4,0,16,0.00
2013-1-14,31,21,13,22,9,-4,84,61,38,29.79,29.67,10,1,20,0.02
2013-1-15,26,17,6,6,1,-2,73,52,35,30.03,29.76,10,2,20,0.00
2013-1-16,40,25,9,14,8,0,69,47,33,30.09,29.97,6,1,16,0.00
2013-1-17,52,32,17,17,13,8,70,48,24,30.16,30.03,4,0,11,0.00
2013-1-18,54,36,20,20,16,12,74,48,24,30.08,29.93,2,0,7,0.00
2013-1-19,54,38,27,20,16,13,61,43,20,30.08,29.93,5,1,13,0.00
2013-1-20,57,38,20,18,14,9,68,39,17,30.03,29.89,8,1,14,0.00
2013-1-21,56,39,23,16,12,8,54,35,18,30.01,29.90,6,1,14,0.00
2013-1-22,61,41,24,19,14,7,63,35,14,30.02,29.93,5,0,13,0.00
2013-1-23,63,41,23,16,11,8,60,32,12,30.08,29.96,4,0,10,0.00
2013-1-24,66,46,26,34,17,8,51,34,16,30.05,29.89,7,1,14,0.00
2013-1-25,60,49,37,38,33,28,71,55,44,30.01,29.88,1,0,11,0.00
2013-1-26,57,48,0,49,40,34,86,72,59,29.89,29.64,13,2,24,0.12
2013-1-27,62,50,42,40,37,31,83,62,32,29.75,29.66,9,3,19,0.00
2013-1-28,57,46,38,38,32,16,80,58,32,29.67,29.49,16,6,28,0.00
2013-1-29,38,32,28,21,13,2,65,45,25,29.67,29.45,20,7,44,0.00
2013-1-30,43,33,23,16,13,6,63,45,27,29.90,29.67,16,4,29,0.00
2013-1-31,54,38,0,23,18,14,72,46,23,29.98,29.87,10,1,22,0.00
2013-2-1,58,41,24,23,19,13,74,45,20,29.98,29.88,13,1,26,0.00
2013-2-2,59,44,30,22,18,15,58,38,21,30.07,29.97,6,0,12,0.00
2013-2-3,53,43,29,29,20,15,57,41,23,30.00,29.74,7,0,16,0.00
2013-2-4,59,46,33,28,24,17,68,44,21,29.85,29.73,8,2,17,0.00
2013-2-5,62,46,32,23,18,15,58,36,17,29.85,29.72,3,0,11,0.00
2013-2-6,63,46,0,27,20,14,59,37,23,29.76,29.62,6,1,16,0.00
2013-2-7,58,46,32,26,21,13,64,38,17,29.86,29.73,10,1,25,0.00
2013-2-8,59,46,0,23,20,15,56,36,24,29.80,29.50,17,5,32,0.00
2013-2-9,50,38,0,22,13,4,56,37,20,29.56,29.40,17,5,36,0.00
2013-2-10,46,36,28,20,13,8,62,42,23,29.70,29.54,10,2,20,0.00
2013-2-11,49,34,20,22,16,2,79,52,16,29.76,29.63,11,3,20,0.00
2013-2-12,43,33,0,23,12,3,73,44,20,29.88,29.64,13,6,29,0.00
2013-2-13,50,37,22,17,12,8,53,37,23,29.87,29.75,13,5,22,0.00
2013-2-14,53,40,27,19,16,13,59,39,21,29.93,29.76,16,4,32,0.00
2013-2-15,53,41,0,22,12,1,67,35,12,30.05,29.90,18,4,32,0.00
2013-2-16,61,43,27,13,7,0,46,25,10,30.10,29.81,11,1,16,0.00
2013-2-17,62,43,23,8,4,0,40,21,10,29.82,29.49,11,3,22,0.00
2013-2-18,54,43,34,17,0,-13,42,18,10,29.83,29.54,13,5,25,0.00
2013-2-19,62,43,24,34,6,-11,61,24,10,29.77,29.49,19,6,40,0.00
2013-2-20,52,44,0,34,27,12,72,54,23,29.50,29.28,18,6,36,0.00
2013-2-21,48,36,0,28,23,18,91,63,32,29.63,29.31,11,3,21,0.10
2013-2-22,45,36,30,24,20,11,68,53,28,29.75,29.58,15,4,30,0.00
2013-2-23,49,37,21,18,13,9,63,39,22,29.82,29.46,11,2,23,0.00
2013-2-24,43,35,0,24,15,3,85,46,23,29.64,29.40,17,8,36,0.00
2013-2-25,51,37,0,24,11,1,84,39,15,29.81,29.61,12,4,23,0.00
2013-2-26,49,36,24,17,6,-10,59,31,11,29.77,29.54,20,7,45,0.00
2013-2-27,48,35,22,10,5,0,51,30,16,29.96,29.75,12,2,20,0.00
2013-2-28,56,40,27,9,4,-2,36,23,10,30.00,29.88,15,5,29,0.00
2013-3-1,61,47,33,20,13,4,35,25,17,30.05,29.94,13,6,24,0.00
2013-3-2,68,51,0,23,20,17,52,31,16,30.14,29.89,7,2,15,0.00
2013-3-3,71,53,0,22,17,6,51,27,10,29.89,29.64,10,3,19,0.00
2013-3-4,64,55,0,23,19,13,33,24,16,29.83,29.59,16,5,33,0.00
2013-3-5,63,48,0,22,17,10,62,32,13,29.99,29.83,8,3,15,0.00
2013-3-6,68,55,44,26,21,16,36,27,18,29.88,29.71,10,4,20,0.00
2013-3-7,74,57,35,21,18,14,46,24,12,29.80,29.67,12,4,22,0.00
2013-3-8,63,49,41,42,25,12,83,44,19,29.72,29.51,16,5,31,0.20
2013-3-9,47,40,0,34,24,16,76,54,30,29.69,29.51,13,4,24,0.00
2013-3-10,54,42,31,28,22,13,80,51,23,29.89,29.66,12,4,25,0.00
2013-3-11,64,45,30,21,18,13,56,35,14,29.92,29.77,9,3,17,0.00
2013-3-12,69,54,36,24,21,18,51,29,16,29.94,29.77,10,2,18,0.00
2013-3-13,72,55,36,26,22,16,58,30,15,30.03,29.91,10,2,16,0.00
2013-3-14,77,59,43,24,18,13,36,22,10,30.01,29.92,7,2,14,0.00
2013-3-15,81,61,40,21,16,12,38,20,10,29.93,29.70,8,1,14,0.00
2013-3-16,74,62,49,33,20,14,43,21,12,29.71,29.55,14,5,28,0.00
2013-3-17,71,56,45,36,22,1,59,33,10,29.67,29.50,15,4,30,0.00
2013-3-18,68,55,39,12,8,2,31,16,10,29.78,29.61,18,4,28,0.00
2013-3-19,65,52,0,17,11,4,26,19,12,29.89,29.69,13,2,29,0.00
2013-3-20,66,51,33,25,17,12,44,27,16,29.96,29.64,10,2,20,0.00
2013-3-21,74,60,0,31,19,7,40,23,10,29.65,29.46,18,6,32,0.00
2013-3-22,68,54,37,26,13,6,35,21,10,29.61,29.42,13,3,26,0.00
2013-3-23,52,42,32,26,3,-13,47,22,10,29.81,29.45,23,10,47,0.00
2013-3-24,55,41,26,1,-5,-12,23,15,10,29.85,29.65,16,4,29,0.00
2013-3-25,58,42,25,11,6,-2,43,23,14,29.92,29.75,13,2,24,0.00
2013-3-26,67,50,31,13,9,6,34,20,11,29.90,29.70,14,5,27,0.00
2013-3-27,74,60,45,15,12,7,26,15,10,29.82,29.73,9,2,25,0.00
2013-3-28,74,63,0,22,15,9,24,16,10,29.87,29.78,14,2,25,0.00
2013-3-29,76,62,47,25,20,14,36,21,10,29.90,29.81,8,1,18,0.00
2013-3-30,76,61,42,26,20,16,40,22,11,29.92,29.78,10,2,24,0.00
2013-3-31,75,63,50,31,26,24,38,26,16,29.90,29.75,6,2,18,0.00
2013-4-1,77,64,0,27,19,8,37,19,10,29.82,29.65,9,2,22,0.00
2013-4-2,69,59,48,23,16,9,30,19,10,29.74,29.59,18,4,30,0.00
2013-4-3,69,54,40,30,25,18,63,36,15,29.86,29.73,10,3,20,0.00
2013-4-4,75,59,42,28,20,10,52,26,10,29.94,29.82,7,2,16,0.00
2013-4-5,79,66,51,19,15,12,24,15,10,29.83,29.59,14,4,30,0.00
2013-4-6,78,65,51,26,20,14,32,19,10,29.76,29.61,10,2,23,0.00
2013-4-7,77,66,50,26,19,13,33,17,10,29.67,29.56,12,4,30,0.00
2013-4-8,79,66,52,28,21,14,33,19,10,29.57,29.25,20,8,40,0.00
2013-4-9,56,47,40,36,31,25,80,54,34,29.61,29.23,13,6,29,0.08
2013-4-10,51,42,37,35,25,18,83,53,35,29.70,29.56,13,4,22,0.00
2013-4-11,65,50,32,30,23,16,59,37,21,29.69,29.58,14,6,27,0.00
2013-4-12,70,58,44,33,28,21,57,34,17,29.69,29.60,7,1,16,0.00
2013-4-13,77,62,45,28,21,12,43,23,10,29.69,29.48,11,3,24,0.00
2013-4-14,79,67,0,25,22,17,27,18,10,29.54,29.45,12,7,36,0.00
2013-4-15,84,66,48,25,20,12,35,19,10,29.59,29.42,14,5,30,0.00
2013-4-16,82,68,54,24,18,8,25,15,10,29.61,29.46,18,8,35,0.00
2013-4-17,64,54,41,27,18,8,38,25,12,29.72,29.48,20,6,30,0.00
2013-4-18,51,42,32,16,6,-1,38,23,13,29.92,29.71,17,8,34,0.00
2013-4-19,66,48,30,8,4,1,32,18,10,29.99,29.73,7,2,14,0.00
2013-4-20,71,58,46,19,8,-3,24,14,10,29.80,29.65,17,5,34,0.00
2013-4-21,77,59,0,24,18,11,43,21,10,29.90,29.77,11,2,21,0.00
2013-4-22,84,67,0,22,17,12,31,16,10,29.79,29.63,13,4,25,0.00
2013-4-23,70,60,45,29,17,-3,46,21,10,29.82,29.63,17,6,31,0.00
2013-4-24,72,52,31,21,16,10,54,29,12,29.90,29.76,8,1,16,0.00
2013-4-25,79,62,0,29,23,14,35,24,11,29.85,29.62,18,5,39,0.00
2013-4-26,78,63,48,30,22,10,47,24,10,29.95,29.77,11,2,26,0.00
2013-4-27,79,64,48,29,19,3,41,22,10,29.96,29.83,8,2,15,0.00
2013-4-28,83,66,44,21,13,4,29,14,10,29.84,29.67,9,2,18,0.00
2013-4-29,88,70,0,24,17,10,30,14,10,29.71,29.55,10,2,19,0.00
2013-4-30,88,73,57,25,19,12,24,13,10,29.65,29.54,12,3,25,0.00
2013-5-1,85,71,53,25,16,4,33,13,10,29.92,29.61,13,5,25,0.00
2013-5-2,64,51,40,28,18,10,51,28,14,30.15,29.92,12,4,28,0.00
2013-5-3,70,53,36,17,13,8,37,22,10,30.06,29.75,8,3,18,0.00
2013-5-4,78,62,0,17,12,7,32,15,10,29.78,29.65,19,4,39,0.00
2013-5-5,75,63,53,31,20,8,27,19,11,29.86,29.73,23,10,46,0.00
2013-5-6,72,64,56,38,26,17,42,24,17,29.78,29.69,14,3,27,0.00
2013-5-7,78,65,49,32,29,20,50,27,12,29.79,29.66,17,3,32,0.00
2013-5-8,74,63,49,34,25,0,53,27,11,29.79,29.66,9,3,23,0.00
2013-5-9,76,63,50,36,24,19,43,24,14,29.87,29.74,11,3,24,0.00
2013-5-10,68,60,0,41,35,30,60,41,26,30.00,29.83,15,4,25,0.00
2013-5-11,73,60,46,43,37,27,82,46,19,30.03,29.98,13,3,32,0.00
2013-5-12,84,65,48,35,32,23,55,31,14,30.03,29.89,9,1,20,0.00
2013-5-13,86,70,52,35,30,24,46,24,12,30.01,29.85,9,2,17,0.00
2013-5-14,89,72,56,44,27,16,43,20,10,29.88,29.70,14,2,38,0.00
2013-5-15,91,75,64,41,35,20,43,26,10,29.77,29.62,14,2,34,0.00
2013-5-16,89,75,59,26,22,14,26,15,10,29.78,29.65,8,2,18,0.00
2013-5-17,89,74,57,26,22,14,26,15,10,29.77,29.64,17,3,36,0.00
2013-5-18,81,72,58,29,20,12,25,14,10,29.76,29.61,14,4,31,0.00
2013-5-19,77,66,58,35,29,18,39,26,12,29.72,29.64,17,6,33,0.00
2013-5-20,79,65,52,35,28,14,47,27,10,29.74,29.62,19,5,33,0.00
2013-5-21,83,67,50,34,28,19,48,27,10,29.78,29.64,12,2,24,0.00
2013-5-22,88,74,54,31,23,16,38,18,10,29.71,29.59,10,2,23,0.00
2013-5-23,94,78,57,45,24,16,34,14,10,29.77,29.63,16,3,28,0.00
2013-5-24,90,77,61,46,32,18,44,23,10,29.87,29.71,10,3,22,0.00
2013-5-25,94,77,57,39,25,15,28,15,10,29.85,29.68,10,2,22,0.00
2013-5-26,91,77,57,27,21,12,26,13,10,29.82,29.68,8,1,20,0.00
2013-5-27,87,73,59,24,17,10,20,12,10,29.78,29.62,13,2,21,0.00
2013-5-28,87,73,55,25,20,13,28,14,10,29.65,29.45,10,2,22,0.00
2013-5-29,83,73,62,36,23,13,33,17,10,29.59,29.47,14,5,30,0.00
2013-5-30,90,75,55,29,22,15,30,15,10,29.70,29.59,12,3,26,0.00
2013-5-31,88,77,65,38,27,10,33,17,10,29.80,29.66,17,7,33,0.00
2013-6-1,89,74,53,29,18,8,22,12,10,29.86,29.76,18,4,35,0.00
2013-6-2,89,76,65,44,35,28,35,23,15,29.88,29.69,19,6,40,0.00
2013-6-3,94,79,0,48,37,15,48,26,10,29.80,29.67,13,4,27,0.00
2013-6-4,95,85,59,31,26,15,26,12,10,29.80,29.70,12,3,27,0.00
2013-6-5,92,79,66,45,32,24,34,19,10,29.80,29.70,13,3,33,0.00
2013-6-6,92,75,57,44,38,24,51,29,10,29.85,29.74,15,3,29,0.00
2013-6-7,94,78,60,50,41,26,65,32,10,29.85,29.66,15,2,36,0.00
2013-6-8,98,81,62,44,36,24,47,24,10,29.74,29.64,16,4,31,0.00
2013-6-9,99,84,69,47,42,31,42,23,12,29.85,29.69,10,2,19,0.00
2013-6-10,102,88,73,47,38,27,38,19,10,29.87,29.75,16,4,51,0.00
2013-6-11,103,89,71,36,30,20,27,13,10,29.85,29.74,10,2,21,0.00
2013-6-12,102,84,65,37,29,20,26,15,10,29.87,29.78,8,1,16,0.00
2013-6-13,100,83,68,53,38,30,50,21,10,29.85,29.75,15,3,28,0.08
2013-6-14,95,81,71,54,48,40,46,33,16,29.84,29.70,15,4,33,0.00
2013-6-15,96,80,63,52,42,28,62,31,10,29.89,29.75,20,3,36,0.00
2013-6-16,97,82,67,45,40,31,43,24,12,29.89,29.80,14,2,30,0.00
2013-6-17,96,81,0,48,39,30,44,25,12,29.91,29.74,22,3,48,0.00
2013-6-18,94,78,66,52,47,36,56,38,14,29.91,29.75,20,9,48,0.00
2013-8-19,87,82,82,50,50,48,33,33,26,29.98,29.89,8,8,8,0.08
2013-8-20,82,81,65,57,50,50,75,35,33,29.99,29.90,8,8,8,0.00
2013-8-26,93,89,84,58,56,53,37,33,30,29.99,29.98,13,4,13,0.00
2013-8-27,96,87,67,60,54,46,62,33,25,30.06,29.86,11,3,11,0.00
2013-8-28,98,81,65,59,54,48,63,41,24,30.01,29.91,12,2,12,0.00
2013-8-29,95,81,71,62,56,54,56,44,26,30.06,29.96,14,3,14,0.00
2013-8-30,100,84,68,65,56,47,70,42,22,30.03,29.87,17,2,17,0.00
2013-8-31,101,85,67,63,53,46,63,36,19,29.95,29.79,11,2,11,0.00
2013-9-1,102,82,68,60,53,45,68,39,19,29.94,29.78,25,3,25,0.09
2013-9-2,98,81,70,62,57,51,68,46,25,29.96,29.81,10,2,11,0.01
2013-9-3,98,82,68,64,56,51,68,45,23,29.96,29.81,16,2,16,0.13
2013-9-4,97,82,65,62,51,36,71,40,18,30.00,29.87,13,3,13,0.00
2013-9-5,97,82,62,51,43,37,52,28,16,30.01,29.89,9,2,9,0.00
2013-9-6,97,81,61,46,42,37,47,27,16,30.00,29.83,13,2,13,0.00
2013-9-7,99,79,64,62,52,46,55,41,22,29.94,29.80,23,1,23,0.07
2013-9-8,96,79,62,56,52,49,67,41,23,29.87,29.70,13,2,13,0.00
2013-9-9,95,80,64,58,52,46,66,40,23,29.79,29.65,15,3,15,0.00
2013-9-10,76,69,64,62,58,52,88,69,51,29.88,29.76,9,2,9,1.04
2013-9-11,87,73,63,65,59,50,89,66,31,29.91,29.81,16,2,16,0.00
2013-9-12,75,67,62,65,60,55,88,77,67,29.92,29.81,11,2,11,1.24
2013-9-13,77,66,61,63,59,56,90,80,53,29.87,29.76,13,2,13,0.86
2013-9-14,80,67,60,62,59,54,90,75,49,29.85,29.74,20,2,20,1.55
2013-9-15,84,70,58,62,56,51,90,65,37,29.90,29.80,11,2,11,0.38
2013-9-16,86,72,57,60,55,52,84,59,34,29.97,29.85,9,2,9,0.00
2013-9-17,88,74,60,63,56,52,81,56,32,29.91,29.74,13,2,13,0.00
2013-9-18,92,76,66,62,57,52,74,53,32,29.81,29.68,11,2,11,0.00
2013-9-19,88,73,62,65,56,47,85,58,28,29.80,29.71,9,2,12,0.28
2013-9-20,88,73,61,56,52,46,66,49,31,29.88,29.77,11,2,11,0.00
2013-9-21,86,72,57,60,54,49,81,53,32,29.87,29.71,12,2,12,0.00
2013-9-22,86,70,59,57,52,44,85,55,28,29.74,29.47,20,4,20,0.27
2013-9-23,76,64,48,46,38,33,68,41,22,29.86,29.62,17,3,17,0.00
2013-9-24,82,66,51,46,42,38,65,45,24,29.95,29.78,9,1,9,0.00
2013-9-25,87,69,49,52,44,37,75,44,22,29.78,29.54,16,2,16,0.00
2013-9-26,87,72,53,49,41,34,64,36,16,29.67,29.55,17,4,17,0.00
2013-9-27,78,64,50,51,41,33,52,44,39,29.83,29.61,17,3,17,0.00
2013-9-28,72,57,40,37,28,19,63,36,16,29.97,29.83,9,1,9,0.00
2013-9-29,80,61,40,38,30,23,65,36,15,29.98,29.81,10,1,10,0.00
2013-9-30,86,66,45,40,33,27,58,33,15,29.85,29.69,10,1,10,0.00
2013-10-1,87,67,46,38,31,21,59,31,10,29.82,29.72,9,1,9,0.00
2013-10-2,84,66,46,39,33,24,61,33,13,29.84,29.69,10,1,10,0.00
2013-10-3,83,66,47,42,34,28,64,34,15,29.75,29.56,13,2,13,0.00
2013-10-4,69,59,50,34,22,10,43,27,13,29.90,29.63,19,5,19,0.00
2013-10-5,66,54,40,26,20,16,49,29,17,30.02,29.90,13,3,13,0.00
2013-10-6,73,55,37,29,24,20,55,33,16,30.06,29.94,6,1,6,0.00
2013-10-7,78,60,41,32,26,21,51,30,14,30.02,29.84,10,1,10,0.00
2013-10-8,82,64,46,38,31,28,54,32,17,29.85,29.64,11,2,11,0.00
2013-10-9,80,64,46,38,34,28,60,35,16,29.74,29.63,15,2,15,0.00
2013-10-10,74,58,44,48,37,29,71,47,26,29.76,29.54,29,5,29,0.18
2013-10-11,66,51,36,37,32,28,76,50,30,29.83,29.74,12,2,12,0.00
2013-10-12,73,56,41,39,35,31,70,47,26,29.92,29.79,14,2,14,0.00
2013-10-13,81,63,46,46,40,34,70,45,21,29.90,29.70,17,3,17,0.00
2013-10-14,74,62,50,44,31,19,65,35,17,29.84,29.74,16,4,16,0.00
2013-10-15,69,53,40,35,28,22,55,39,28,29.86,29.69,30,6,30,0.00
2013-10-16,65,55,46,38,29,14,59,40,21,29.89,29.77,15,3,15,0.00
2013-10-17,67,51,34,28,22,16,59,35,18,29.90,29.71,10,1,10,0.00
2013-10-18,67,52,35,28,20,14,60,32,15,29.90,29.72,20,3,20,0.00
2013-10-19,68,51,35,32,25,17,70,40,18,29.96,29.79,8,2,8,0.00
2013-10-20,73,56,36,29,21,14,55,29,13,29.82,29.65,13,2,16,0.00
2013-10-21,68,55,42,34,28,20,57,36,23,29.92,29.74,9,1,9,0.00
2013-10-22,71,53,36,34,26,21,66,39,17,30.01,29.88,6,1,6,0.00
2013-10-23,74,55,38,33,27,20,56,36,22,29.96,29.83,9,1,9,0.00
2013-10-24,76,58,41,48,33,26,77,41,21,29.98,29.83,15,2,15,0.06
2013-10-25,68,56,48,50,44,39,84,66,44,29.99,29.86,16,3,16,0.06
2013-10-26,70,54,40,47,39,34,84,61,34,30.03,29.93,9,1,9,0.00
2013-10-27,72,56,39,43,37,33,79,52,29,29.97,29.69,9,1,9,0.00
2013-10-28,72,59,47,44,34,23,68,44,22,29.74,29.63,13,2,13,0.00
2013-10-29,72,61,49,34,27,24,40,29,19,29.78,29.60,24,3,24,0.00
2013-10-30,65,53,42,41,32,26,63,47,32,29.75,29.57,17,3,17,0.05
2013-10-31,59,47,35,31,27,24,73,48,28,29.85,29.74,17,4,17,0.00
2013-11-1,64,50,37,32,27,24,64,42,24,29.98,29.81,16,3,16,0.00
2013-11-2,66,50,35,32,27,23,67,42,24,30.04,29.79,10,1,10,0.00
2013-11-3,71,56,45,38,30,23,55,38,23,29.79,29.54,17,2,17,0.00
2013-11-4,69,56,39,42,36,29,71,49,30,29.71,29.55,12,2,12,0.00
2013-11-5,55,47,36,45,32,16,83,58,41,29.97,29.58,16,4,16,0.19
2013-11-6,56,43,28,24,17,14,62,37,20,30.12,29.96,12,2,12,0.00
2013-11-7,61,45,31,30,23,17,67,44,24,30.16,29.97,10,1,10,0.00
2013-11-8,64,46,30,32,26,21,74,49,25,29.98,29.79,8,1,8,0.00
2013-11-9,69,49,32,34,27,23,70,45,22,29.95,29.84,5,1,5,0.00
2013-11-10,70,51,36,33,27,23,63,43,21,30.03,29.92,7,1,7,0.00
2013-11-11,69,52,39,32,26,22,60,39,19,30.07,29.94,8,2,11,0.00
2013-11-12,60,48,36,37,30,22,70,51,37,30.24,30.06,11,1,11,0.00
2013-11-13,41,39,37,32,31,30,78,73,67,30.19,30.16,5,1,5,0.00
2013-11-14,62,50,36,42,35,27,83,56,37,29.85,29.70,6,1,6,0.00
2013-11-15,64,47,33,45,34,24,82,62,36,29.70,29.48,18,3,18,0.09
2013-11-16,62,52,45,44,37,29,83,60,37,29.63,29.44,15,2,15,0.02
2013-11-17,61,50,37,34,31,28,72,50,36,29.90,29.63,19,3,19,0.00
2013-11-18,58,44,35,35,30,27,73,58,38,29.97,29.85,6,1,6,0.00
2013-11-19,63,46,31,37,32,25,80,58,34,29.87,29.63,8,1,8,0.00
2013-11-20,50,45,39,42,37,29,86,73,56,29.72,29.64,5,1,9,0.23
2013-11-21,60,48,43,47,42,39,89,81,59,29.84,29.69,9,1,9,0.29
2013-11-22,45,39,36,41,31,27,87,71,62,30.02,29.81,23,4,23,0.04
2013-11-23,41,37,30,32,27,19,85,68,52,30.07,29.96,20,3,20,0.02
2013-11-24,37,31,26,28,24,19,83,73,62,30.02,29.81,14,2,14,0.07
2013-11-25,48,37,30,32,28,24,83,71,48,30.01,29.77,10,2,10,0.02
2013-11-26,49,37,26,33,27,21,84,69,49,30.11,30.01,7,1,7,0.00
2013-11-27,51,37,26,32,27,21,81,66,46,30.07,29.90,7,1,7,0.01
2013-11-28,51,37,26,31,25,21,84,64,41,29.98,29.88,6,1,6,0.00
2013-11-29,55,40,27,34,27,21,81,63,40,30.05,29.94,5,1,6,0.00
2013-11-30,58,42,32,36,30,25,80,63,42,30.03,29.90,8,1,8,0.00
2013-12-1,51,40,34,34,30,27,80,66,48,30.02,29.92,13,4,13,0.00
2013-12-2,53,41,31,32,27,24,75,60,40,29.93,29.62,10,2,10,0.00
2013-12-3,64,46,29,33,23,16,76,46,16,29.62,29.40,17,2,17,0.00
2013-12-4,62,48,38,32,24,18,63,41,21,29.61,29.38,27,6,27,0.00
2013-12-5,39,29,16,30,23,10,86,77,50,29.70,29.56,8,2,8,0.03
2013-12-6,36,26,16,22,15,9,83,65,44,29.84,29.69,8,1,8,0.14
2013-12-7,34,27,18,27,20,10,81,74,67,29.80,29.56,7,1,7,0.00
2013-12-8,37,32,27,26,17,10,81,56,44,29.70,29.52,18,4,18,0.00
2013-12-9,34,27,17,16,9,2,65,48,31,30.11,29.69,19,5,19,0.00
2013-12-10,36,24,13,10,5,0,62,46,30,30.12,29.92,12,1,12,0.01
2013-12-11,43,28,15,18,12,6,70,53,31,30.15,29.96,9,2,9,0.02
2013-12-12,38,30,24,20,17,14,67,58,47,30.14,29.83,5,0,5,0.00
2013-12-13,49,38,33,33,25,19,76,60,49,29.83,29.69,13,2,13,0.00
2013-12-14,48,37,27,22,19,16,66,49,33,30.08,29.83,12,2,12,0.00
2013-12-15,50,37,24,22,18,14,67,48,31,30.09,29.97,14,3,14,0.00
2013-12-16,56,41,26,27,22,16,69,47,28,30.09,29.97,13,2,13,0.00
2013-12-17,57,41,27,28,22,17,71,48,27,30.12,29.99,8,2,9,0.00
2013-12-18,56,39,27,29,23,17,70,53,34,29.99,29.67,7,1,7,0.00
2013-12-19,57,43,28,31,24,17,73,50,31,29.67,29.47,9,1,9,0.00
2013-12-20,56,41,30,29,24,17,69,52,31,29.55,29.40,11,1,11,0.00
2013-12-21,44,39,35,33,28,24,84,66,50,29.59,29.34,17,4,17,0.17
2013-12-22,45,36,28,26,21,16,64,55,35,29.98,29.59,10,2,12,0.00
2013-12-23,49,36,25,24,19,14,66,51,34,30.12,29.97,9,1,9,0.00
2013-12-24,51,38,24,27,22,16,72,54,34,30.07,29.88,14,2,14,0.00
2013-12-25,48,36,26,23,18,13,67,50,29,30.10,29.97,10,2,10,0.00
2013-12-26,49,34,19,21,16,10,69,49,30,30.07,29.93,9,1,9,0.00
2013-12-27,53,37,27,20,16,12,61,44,25,30.06,29.92,10,2,10,0.00
2013-12-28,51,35,21,23,17,11,68,50,29,29.92,29.66,8,1,8,0.00
2013-12-29,52,39,28,28,22,18,66,50,36,29.90,29.69,10,1,10,0.00
2013-12-30,52,37,24,22,15,11,70,44,21,30.03,29.89,14,2,14,0.00
2013-12-31,52,36,23,23,16,11,65,45,27,30.03,29.85,7,1,7,0.00
2014-1-1,56,40,24,27,18,15,69,46,23,30.00,29.82,20,3,20,0.00
2014-1-2,52,37,23,26,16,13,72,46,24,30.07,29.92,8,1,8,0.00